createdAt,value
2022-11-10T00:00:40.998Z,82.42
2022-11-10T00:03:10.382Z,82.49
2022-11-10T00:05:38.949Z,82.12
2022-11-10T00:08:08.354Z,82.01
2022-11-10T00:10:56.946Z,81.41
2022-11-10T00:13:26.061Z,81.22
2022-11-10T00:16:11.330Z,81.35
2022-11-10T00:18:38.945Z,81.20
2022-11-10T00:21:07.863Z,81.51
2022-11-10T00:23:35.502Z,81.41
2022-11-10T00:26:05.084Z,80.78
2022-11-10T00:28:33.534Z,81.06
2022-11-10T00:31:07.037Z,80.82
2022-11-10T00:33:36.178Z,80.80
2022-11-10T00:36:04.534Z,80.84
2022-11-10T00:38:32.149Z,80.65
2022-11-10T00:41:00.680Z,80.54
2022-11-10T00:43:30.403Z,80.63
2022-11-10T00:45:58.577Z,79.94
2022-11-10T00:48:26.367Z,80.45
2022-11-10T00:50:54.008Z,80.27
2022-11-10T00:53:21.923Z,80.02
2022-11-10T00:55:49.773Z,80.05
2022-11-10T00:58:17.779Z,80.53
2022-11-10T01:00:46.897Z,80.17
2022-11-10T01:03:16.110Z,80.62
2022-11-10T01:05:43.992Z,80.41
2022-11-10T01:08:12.310Z,80.86
2022-11-10T01:10:40.027Z,81.02
2022-11-10T01:13:07.703Z,80.64
2022-11-10T01:15:35.327Z,80.81
2022-11-10T01:18:04.453Z,80.79
2022-11-10T01:20:33.799Z,80.90
2022-11-10T01:23:01.593Z,80.92
2022-11-10T01:25:29.248Z,80.39
2022-11-10T01:27:56.891Z,80.54
2022-11-10T01:30:24.483Z,80.67
2022-11-10T01:32:52.153Z,79.81
2022-11-10T01:35:21.874Z,80.35
2022-11-10T01:37:49.493Z,80.48
2022-11-10T01:40:17.181Z,80.13
2022-11-10T01:42:51.278Z,80.12
2022-11-10T01:45:45.032Z,79.62
2022-11-10T01:48:17.106Z,78.89
2022-11-10T01:50:48.781Z,78.87
2022-11-10T01:53:21.723Z,79.33
2022-11-10T01:55:50.552Z,79.29
2022-11-10T01:58:22.191Z,79.86
2022-11-10T02:00:50.431Z,79.84
2022-11-10T02:03:25.034Z,79.93
2022-11-10T02:05:54.284Z,80.66
2022-11-10T02:08:23.320Z,80.09
2022-11-10T02:10:50.912Z,80.18
2022-11-10T02:13:18.709Z,80.03
2022-11-10T02:15:46.857Z,80.25
2022-11-10T02:18:14.506Z,80.17
2022-11-10T02:20:46.612Z,80.35
2022-11-10T02:23:16.716Z,80.48
2022-11-10T02:25:44.585Z,80.61
2022-11-10T02:28:12.164Z,80.46
2022-11-10T02:30:39.732Z,80.92
2022-11-10T02:33:07.344Z,80.89
2022-11-10T02:35:34.947Z,81.13
2022-11-10T02:38:03.890Z,81.15
2022-11-10T02:40:31.537Z,81.40
2022-11-10T02:42:59.132Z,81.49
2022-11-10T02:45:26.723Z,81.34
2022-11-10T02:47:54.366Z,80.88
2022-11-10T02:50:21.934Z,80.88
2022-11-10T02:52:49.550Z,81.46
2022-11-10T02:55:18.608Z,81.11
2022-11-10T02:57:46.177Z,80.93
2022-11-10T03:00:14.276Z,80.76
2022-11-10T03:02:41.898Z,81.12
2022-11-10T03:05:09.838Z,79.10
2022-11-10T03:07:37.611Z,78.53
2022-11-10T03:10:06.350Z,78.64
2022-11-10T03:12:35.292Z,78.49
2022-11-10T03:15:02.951Z,78.72
2022-11-10T03:17:30.598Z,78.60
2022-11-10T03:19:58.188Z,78.47
2022-11-10T03:22:25.819Z,77.91
2022-11-10T03:24:53.410Z,77.22
2022-11-10T03:27:21.049Z,77.13
2022-11-10T03:29:49.999Z,77.18
2022-11-10T03:32:17.561Z,77.69
2022-11-10T03:34:45.176Z,77.74
2022-11-10T03:37:12.761Z,78.08
2022-11-10T03:39:40.745Z,78.01
2022-11-10T03:42:08.327Z,78.70
2022-11-10T03:44:35.944Z,78.61
2022-11-10T03:47:04.980Z,78.67
2022-11-10T03:49:32.650Z,78.94
2022-11-10T03:52:00.217Z,78.65
2022-11-10T03:54:27.803Z,78.60
2022-11-10T03:56:55.793Z,78.59
2022-11-10T03:59:23.356Z,78.45
2022-11-10T04:01:51.197Z,78.08
2022-11-10T04:04:34.133Z,78.27
2022-11-10T04:07:27.547Z,78.83
2022-11-10T04:09:55.119Z,78.84
2022-11-10T04:12:40.503Z,78.22
2022-11-10T04:15:28.149Z,77.93
2022-11-10T04:18:15.779Z,78.27
2022-11-10T04:20:45.629Z,78.00
2022-11-10T04:23:28.627Z,78.57
2022-11-10T04:26:15.860Z,78.76
2022-11-10T04:28:44.069Z,78.72
2022-11-10T04:31:11.929Z,78.85
2022-11-10T04:33:41.170Z,78.95
2022-11-10T04:36:12.930Z,78.31
2022-11-10T04:38:41.076Z,77.82
2022-11-10T04:41:08.961Z,77.46
2022-11-10T04:43:36.654Z,77.31
2022-11-10T04:46:05.444Z,77.84
2022-11-10T04:48:34.574Z,77.78
2022-11-10T04:51:04.839Z,78.08
2022-11-10T04:53:34.839Z,79.09
2022-11-10T04:56:02.488Z,80.03
2022-11-10T04:58:30.277Z,80.43
2022-11-10T05:00:58.075Z,80.24
2022-11-10T05:03:26.521Z,80.03
2022-11-10T05:05:54.216Z,79.82
2022-11-10T05:08:21.870Z,79.78
2022-11-10T05:10:50.801Z,79.95
2022-11-10T05:13:18.408Z,79.57
2022-11-10T05:15:46.942Z,79.61
2022-11-10T05:18:14.680Z,79.67
2022-11-10T05:20:42.293Z,79.93
2022-11-10T05:23:27.647Z,80.14
2022-11-10T05:25:56.662Z,79.19
2022-11-10T05:28:24.506Z,79.63
2022-11-10T05:30:52.154Z,79.09
2022-11-10T05:33:20.118Z,79.10
2022-11-10T05:35:49.921Z,78.44
2022-11-10T05:38:17.586Z,78.97
2022-11-10T05:40:45.276Z,78.90
2022-11-10T05:43:14.417Z,78.71
2022-11-10T05:45:42.198Z,79.00
2022-11-10T05:48:09.955Z,78.67
2022-11-10T05:50:37.674Z,79.17
2022-11-10T05:53:05.286Z,79.39
2022-11-10T05:55:33.003Z,79.40
2022-11-10T05:58:00.560Z,79.51
2022-11-10T06:00:31.119Z,79.25
2022-11-10T06:03:03.447Z,79.48
2022-11-10T06:05:32.986Z,80.13
2022-11-10T06:08:01.414Z,80.31
2022-11-10T06:10:29.351Z,80.14
2022-11-10T06:12:57.008Z,79.93
2022-11-10T06:15:25.355Z,79.86
2022-11-10T06:17:54.869Z,79.33
2022-11-10T06:20:23.393Z,78.75
2022-11-10T06:23:00.951Z,78.41
2022-11-10T06:25:30.250Z,78.48
2022-11-10T06:27:58.623Z,78.90
2022-11-10T06:30:27.515Z,79.44
2022-11-10T06:32:56.499Z,79.46
2022-11-10T06:35:25.524Z,80.33
2022-11-10T06:38:00.780Z,80.38
2022-11-10T06:40:28.747Z,80.78
2022-11-10T06:42:56.520Z,80.49
2022-11-10T06:45:24.896Z,80.23
2022-11-10T06:48:02.465Z,80.04
2022-11-10T06:50:30.315Z,79.50
2022-11-10T06:52:59.435Z,79.80
2022-11-10T06:55:27.497Z,79.51
2022-11-10T06:57:55.335Z,79.03
2022-11-10T07:00:23.303Z,79.27
2022-11-10T07:03:01.296Z,78.61
2022-11-10T07:05:29.430Z,78.73
2022-11-10T07:07:57.071Z,78.66
2022-11-10T07:10:24.706Z,79.13
2022-11-10T07:12:57.538Z,79.08
2022-11-10T07:15:25.338Z,78.91
2022-11-10T07:17:53.023Z,78.66
2022-11-10T07:20:22.098Z,78.60
2022-11-10T07:22:49.760Z,78.86
2022-11-10T07:25:17.524Z,78.00
2022-11-10T07:27:45.157Z,78.61
2022-11-10T07:30:13.582Z,78.09
2022-11-10T07:32:41.164Z,78.42
2022-11-10T07:35:09.551Z,78.01
2022-11-10T07:37:38.456Z,78.18
2022-11-10T07:40:07.080Z,78.35
2022-11-10T07:42:40.446Z,79.00
2022-11-10T07:45:09.261Z,79.29
2022-11-10T07:47:36.848Z,79.51
2022-11-10T07:50:04.641Z,80.12
2022-11-10T07:52:32.287Z,79.66
2022-11-10T07:55:01.245Z,79.72
2022-11-10T07:57:28.899Z,80.27
2022-11-10T07:59:58.180Z,80.40
2022-11-10T08:02:26.167Z,80.75
2022-11-10T08:04:53.841Z,80.35
2022-11-10T08:07:21.509Z,80.19
2022-11-10T08:09:50.562Z,80.06
2022-11-10T08:12:19.582Z,79.73
2022-11-10T08:14:47.238Z,79.70
2022-11-10T08:17:14.805Z,79.25
2022-11-10T08:19:42.415Z,79.21
2022-11-10T08:22:09.981Z,78.88
2022-11-10T08:24:37.552Z,78.99
2022-11-10T08:27:05.420Z,78.70
2022-11-10T08:29:34.426Z,78.60
2022-11-10T08:32:08.457Z,78.62
2022-11-10T08:34:54.668Z,78.38
2022-11-10T08:37:24.360Z,77.93
2022-11-10T08:39:51.926Z,78.32
2022-11-10T08:42:19.596Z,78.58
2022-11-10T08:44:49.110Z,78.66
2022-11-10T08:47:16.868Z,77.88
2022-11-10T08:49:45.159Z,77.86
2022-11-10T08:52:14.229Z,77.66
2022-11-10T08:54:42.338Z,78.09
2022-11-10T08:57:10.512Z,77.72
2022-11-10T08:59:38.699Z,77.67
2022-11-10T09:02:09.708Z,77.87
2022-11-10T09:04:37.790Z,77.53
2022-11-10T09:07:05.463Z,77.13
2022-11-10T09:09:33.072Z,76.95
2022-11-10T09:12:00.752Z,77.13
2022-11-10T09:14:28.390Z,76.77
2022-11-10T09:16:55.980Z,75.75
2022-11-10T09:19:24.973Z,76.03
2022-11-10T09:21:52.569Z,76.40
2022-11-10T09:24:20.226Z,76.22
2022-11-10T09:26:48.029Z,75.07
2022-11-10T09:29:15.798Z,75.29
2022-11-10T09:31:44.607Z,74.65
2022-11-10T09:34:12.319Z,73.73
2022-11-10T09:36:41.319Z,73.90
2022-11-10T09:39:09.096Z,74.05
2022-11-10T09:41:44.235Z,74.39
2022-11-10T09:44:17.295Z,74.20
2022-11-10T09:46:47.439Z,74.78
2022-11-10T09:49:26.509Z,74.28
2022-11-10T09:51:56.010Z,74.30
2022-11-10T09:54:33.648Z,74.99
2022-11-10T09:57:02.585Z,74.27
2022-11-10T09:59:32.275Z,72.06
2022-11-10T10:02:04.313Z,72.99
2022-11-10T10:04:51.708Z,73.61
2022-11-10T10:07:26.155Z,70.83
2022-11-10T10:10:01.825Z,68.67
2022-11-10T10:12:49.440Z,68.53
2022-11-10T10:15:28.132Z,69.24
2022-11-10T10:18:06.340Z,69.17
2022-11-10T10:20:41.313Z,67.19
2022-11-10T10:23:24.146Z,66.36
2022-11-10T10:25:58.334Z,66.59
2022-11-10T10:28:30.126Z,66.86
2022-11-10T10:31:09.000Z,66.94
2022-11-10T10:33:36.665Z,67.75
2022-11-10T10:36:10.607Z,67.75
2022-11-10T10:38:40.996Z,67.04
2022-11-10T10:41:19.512Z,66.22
2022-11-10T10:43:52.801Z,64.45
2022-11-10T10:46:24.852Z,63.70
2022-11-10T10:49:27.448Z,65.55
2022-11-10T10:52:05.280Z,65.72
2022-11-10T10:54:35.682Z,67.15
2022-11-10T10:57:05.986Z,67.40
2022-11-10T10:59:34.580Z,65.85
2022-11-10T11:02:02.254Z,67.23
2022-11-10T11:04:33.016Z,67.01
2022-11-10T11:07:03.748Z,66.48
2022-11-10T11:09:41.585Z,66.92
2022-11-10T11:12:12.809Z,66.75
2022-11-10T11:14:45.656Z,65.43
2022-11-10T11:17:15.374Z,62.66
2022-11-10T11:19:43.075Z,63.61
2022-11-10T11:22:37.741Z,65.05
2022-11-10T11:25:17.274Z,65.98
2022-11-10T11:27:54.566Z,66.94
2022-11-10T11:30:23.921Z,65.72
2022-11-10T11:33:16.455Z,66.00
2022-11-10T11:35:50.711Z,65.98
2022-11-10T11:38:28.274Z,64.17
2022-11-10T11:41:12.577Z,63.06
2022-11-10T11:43:57.276Z,62.57
2022-11-10T11:46:35.856Z,63.17
2022-11-10T11:49:27.219Z,58.80
2022-11-10T11:52:07.866Z,58.64
2022-11-10T11:54:46.864Z,60.92
2022-11-10T11:57:31.676Z,60.37
2022-11-10T12:00:10.327Z,60.70
2022-11-10T12:03:04.957Z,61.88
2022-11-10T12:05:38.392Z,63.21
2022-11-10T12:08:19.264Z,63.49
2022-11-10T12:10:58.681Z,63.87
2022-11-10T12:13:37.603Z,62.01
2022-11-10T12:16:15.415Z,63.27
2022-11-10T12:18:49.941Z,59.14
2022-11-10T12:21:25.515Z,58.58
2022-11-10T12:24:13.096Z,56.34
2022-11-10T12:26:50.052Z,56.78
2022-11-10T12:29:27.363Z,56.47
2022-11-10T12:32:02.653Z,55.74
2022-11-10T12:34:37.047Z,55.37
2022-11-10T12:37:09.104Z,56.29
2022-11-10T12:39:47.241Z,56.03
2022-11-10T12:42:19.681Z,57.00
2022-11-10T12:44:59.421Z,57.48
2022-11-10T12:47:32.458Z,57.28
2022-11-10T12:50:11.517Z,56.93
2022-11-10T12:52:45.423Z,57.09
2022-11-10T12:55:14.146Z,58.38
2022-11-10T12:57:43.674Z,56.66
2022-11-10T13:00:28.666Z,55.72
2022-11-10T13:02:58.915Z,54.34
2022-11-10T13:05:32.781Z,55.11
2022-11-10T13:08:17.129Z,55.58
2022-11-10T13:10:56.961Z,55.43
2022-11-10T13:13:25.856Z,55.66
2022-11-10T13:15:59.509Z,56.14
2022-11-10T13:18:57.388Z,55.13
2022-11-10T13:22:05.338Z,56.01
2022-11-10T13:24:34.308Z,57.73
2022-11-10T13:27:02.931Z,58.93
2022-11-10T13:29:36.443Z,58.67
2022-11-10T13:32:30.565Z,58.18
2022-11-10T13:35:31.615Z,58.43
2022-11-10T13:37:59.256Z,57.64
2022-11-10T13:40:33.980Z,58.03
2022-11-10T13:43:23.835Z,57.70
2022-11-10T13:46:03.151Z,56.81
2022-11-10T13:48:44.271Z,56.47
2022-11-10T13:51:22.804Z,53.88
2022-11-10T13:54:03.714Z,52.34
2022-11-10T13:56:51.394Z,51.58
2022-11-10T13:59:22.003Z,51.81
2022-11-10T14:01:49.840Z,51.82
2022-11-10T14:04:42.865Z,51.32
2022-11-10T14:07:16.337Z,46.22
2022-11-10T14:09:47.751Z,46.56
2022-11-10T14:12:23.133Z,45.35
2022-11-10T14:14:56.212Z,45.59
2022-11-10T14:17:28.591Z,48.50
2022-11-10T14:19:58.395Z,48.44
2022-11-10T14:22:30.947Z,46.15
2022-11-10T14:25:03.545Z,48.77
2022-11-10T14:27:35.257Z,50.30
2022-11-10T14:30:10.916Z,51.14
2022-11-10T14:32:38.689Z,52.08
2022-11-10T14:35:20.422Z,47.70
2022-11-10T14:37:48.124Z,47.93
2022-11-10T14:40:19.801Z,48.57
2022-11-10T14:42:48.177Z,48.88
2022-11-10T14:45:18.610Z,48.96
2022-11-10T14:47:53.374Z,48.42
2022-11-10T14:50:25.812Z,49.99
2022-11-10T14:52:58.920Z,49.45
2022-11-10T14:55:30.362Z,50.89
2022-11-10T14:58:03.705Z,50.69
2022-11-10T15:00:36.701Z,52.69
2022-11-10T15:03:06.854Z,52.50
2022-11-10T15:05:36.446Z,53.03
2022-11-10T15:08:05.506Z,53.70
2022-11-10T15:10:45.311Z,54.35
2022-11-10T15:13:25.501Z,55.13
2022-11-10T15:15:53.690Z,56.18
2022-11-10T15:18:31.406Z,56.44
2022-11-10T15:21:04.705Z,57.13
2022-11-10T15:23:36.439Z,57.59
2022-11-10T15:26:04.546Z,56.56
2022-11-10T15:28:33.740Z,57.18
2022-11-10T15:31:03.669Z,57.54
2022-11-10T15:33:34.863Z,57.92
2022-11-10T15:36:18.700Z,57.88
2022-11-10T15:39:02.526Z,57.43
2022-11-10T15:41:33.492Z,57.98
2022-11-10T15:44:14.382Z,58.41
2022-11-10T15:46:42.271Z,58.78
2022-11-10T15:49:15.637Z,59.28
2022-11-10T15:51:44.853Z,59.10
2022-11-10T15:54:12.898Z,59.17
2022-11-10T15:56:40.620Z,59.35
2022-11-10T15:59:10.442Z,59.27
2022-11-10T16:01:38.227Z,59.98
2022-11-10T16:04:06.386Z,59.91
2022-11-10T16:06:34.093Z,60.26
2022-11-10T16:09:03.218Z,60.22
2022-11-10T16:11:32.063Z,60.32
2022-11-10T16:14:01.259Z,60.80
2022-11-10T16:16:29.991Z,60.59
2022-11-10T16:18:57.639Z,60.94
2022-11-10T16:21:28.104Z,61.05
2022-11-10T16:23:55.658Z,60.62
2022-11-10T16:26:27.487Z,60.72
2022-11-10T16:28:55.146Z,61.06
2022-11-10T16:31:23.312Z,60.90
2022-11-10T16:33:51.060Z,61.17
2022-11-10T16:36:24.970Z,61.39
2022-11-10T16:38:52.979Z,61.45
2022-11-10T16:41:20.985Z,61.38
2022-11-10T16:43:50.313Z,61.54
2022-11-10T16:46:20.938Z,61.26
2022-11-10T16:48:50.069Z,61.56
2022-11-10T16:51:18.270Z,61.71
2022-11-10T16:53:54.686Z,62.02
2022-11-10T16:56:23.100Z,62.06
2022-11-10T16:58:52.393Z,61.88
2022-11-10T17:01:23.136Z,60.77
2022-11-10T17:03:53.634Z,60.43
2022-11-10T17:06:22.150Z,60.96
2022-11-10T17:08:53.398Z,61.32
2022-11-10T17:11:21.097Z,61.91
2022-11-10T17:13:48.711Z,62.34
2022-11-10T17:16:22.942Z,62.57
2022-11-10T17:18:51.720Z,62.35
2022-11-10T17:21:20.168Z,62.89
2022-11-10T17:23:47.865Z,62.89
2022-11-10T17:26:17.575Z,63.10
2022-11-10T17:28:45.197Z,62.99
2022-11-10T17:31:13.849Z,62.79
2022-11-10T17:33:43.010Z,62.91
2022-11-10T17:36:15.019Z,63.55
2022-11-10T17:38:43.862Z,63.08
2022-11-10T17:41:16.491Z,63.16
2022-11-10T17:43:45.873Z,63.14
2022-11-10T17:46:13.888Z,63.50
2022-11-10T17:48:42.878Z,63.29
2022-11-10T17:51:14.771Z,63.70
2022-11-10T17:53:43.692Z,63.87
2022-11-10T17:56:11.314Z,63.54
2022-11-10T17:58:38.962Z,63.63
2022-11-10T18:01:11.933Z,63.65
2022-11-10T18:03:39.624Z,64.22
2022-11-10T18:06:09.168Z,64.11
2022-11-10T18:08:37.603Z,64.09
2022-11-10T18:11:05.347Z,64.15
2022-11-10T18:13:32.947Z,64.04
2022-11-10T18:16:00.802Z,64.15
2022-11-10T18:18:28.392Z,64.01
2022-11-10T18:20:57.577Z,64.21
2022-11-10T18:23:26.585Z,64.31
2022-11-10T18:25:54.198Z,64.85
2022-11-10T18:28:21.940Z,64.64
2022-11-10T18:30:49.528Z,64.71
2022-11-10T18:33:17.110Z,64.71
2022-11-10T18:35:44.736Z,63.94
2022-11-10T18:38:13.941Z,63.70
2022-11-10T18:40:42.918Z,63.18
2022-11-10T18:43:10.550Z,62.64
2022-11-10T18:45:38.201Z,62.69
2022-11-10T18:48:06.369Z,62.88
2022-11-10T18:50:34.194Z,62.98
2022-11-10T18:53:04.442Z,61.92
2022-11-10T18:55:32.034Z,61.35
2022-11-10T18:58:00.976Z,61.22
2022-11-10T19:00:28.547Z,61.85
2022-11-10T19:02:56.099Z,61.70
2022-11-10T19:05:23.775Z,61.59
2022-11-10T19:07:51.381Z,61.75
2022-11-10T19:10:19.197Z,61.76
2022-11-10T19:12:46.775Z,62.47
2022-11-10T19:15:15.962Z,62.71
2022-11-10T19:17:43.560Z,62.67
2022-11-10T19:20:14.666Z,62.85
2022-11-10T19:22:42.469Z,63.68
2022-11-10T19:25:10.400Z,64.00
2022-11-10T19:27:38.079Z,64.52
2022-11-10T19:30:06.573Z,64.66
2022-11-10T19:32:35.550Z,64.69
2022-11-10T19:35:04.244Z,64.74
2022-11-10T19:37:34.932Z,64.96
2022-11-10T19:40:03.298Z,64.79
2022-11-10T19:42:31.924Z,64.13
2022-11-10T19:45:00.479Z,64.15
2022-11-10T19:47:28.099Z,63.08
2022-11-10T19:49:57.246Z,63.01
2022-11-10T19:52:24.862Z,63.69
2022-11-10T19:54:52.426Z,64.09
2022-11-10T19:57:20.043Z,64.61
2022-11-10T19:59:47.649Z,63.94
2022-11-10T20:02:15.219Z,63.55
2022-11-10T20:04:56.833Z,62.82
2022-11-10T20:07:43.144Z,63.16
2022-11-10T20:10:11.223Z,63.30
2022-11-10T20:12:44.048Z,63.17
2022-11-10T20:15:12.048Z,62.70
2022-11-10T20:17:39.597Z,63.61
2022-11-10T20:20:08.171Z,63.05
2022-11-10T20:22:37.170Z,63.01
2022-11-10T20:25:05.603Z,63.24
2022-11-10T20:27:33.351Z,63.18
2022-11-10T20:30:01.017Z,63.77
2022-11-10T20:32:29.045Z,63.49
2022-11-10T20:34:58.643Z,63.95
2022-11-10T20:37:32.312Z,63.29
2022-11-10T20:40:02.584Z,63.72
2022-11-10T20:42:31.593Z,63.56
2022-11-10T20:44:59.248Z,63.23
2022-11-10T20:47:27.037Z,63.87
2022-11-10T20:49:54.733Z,64.41
2022-11-10T20:52:27.451Z,64.37
2022-11-10T20:54:55.246Z,64.24
2022-11-10T20:57:24.201Z,64.69
2022-11-10T20:59:51.799Z,64.85
2022-11-10T21:02:19.433Z,65.04
2022-11-10T21:04:47.140Z,65.18
2022-11-10T21:07:14.838Z,65.64
2022-11-10T21:09:42.549Z,65.70
2022-11-10T21:12:30.454Z,65.82
2022-11-10T21:14:59.427Z,65.91
2022-11-10T21:17:27.151Z,65.71
2022-11-10T21:19:55.540Z,65.93
2022-11-10T21:22:23.186Z,65.86
2022-11-10T21:24:50.787Z,66.16
2022-11-10T21:27:18.392Z,66.43
2022-11-10T21:29:46.371Z,66.73
2022-11-10T21:32:15.389Z,66.66
2022-11-10T21:34:43.088Z,66.13
2022-11-10T21:37:10.688Z,64.54
2022-11-10T21:39:38.701Z,63.89
2022-11-10T21:42:06.733Z,63.81
2022-11-10T21:44:34.352Z,64.34
2022-11-10T21:47:01.927Z,64.53
2022-11-10T21:49:30.915Z,65.17
2022-11-10T21:51:58.494Z,64.74
2022-11-10T21:54:26.105Z,65.22
2022-11-10T21:56:53.715Z,65.22
2022-11-10T21:59:21.346Z,64.54
2022-11-10T22:01:49.051Z,64.26
2022-11-10T22:04:18.731Z,63.74
2022-11-10T22:07:05.531Z,64.22
2022-11-10T22:09:50.885Z,64.00
2022-11-10T22:12:41.596Z,63.97
2022-11-10T22:15:32.234Z,64.22
2022-11-10T22:18:17.654Z,64.57
2022-11-10T22:20:45.317Z,64.72
2022-11-10T22:23:14.304Z,65.24
2022-11-10T22:25:41.893Z,64.51
2022-11-10T22:28:09.466Z,64.71
2022-11-10T22:30:37.549Z,65.12
2022-11-10T22:33:25.960Z,64.97
2022-11-10T22:35:57.954Z,65.30
2022-11-10T22:38:26.903Z,65.50
2022-11-10T22:41:12.229Z,66.04
2022-11-10T22:43:57.522Z,66.16
2022-11-10T22:46:25.111Z,65.56
2022-11-10T22:48:52.755Z,65.81
2022-11-10T22:51:20.543Z,65.77
2022-11-10T22:53:49.711Z,65.89
2022-11-10T22:56:18.894Z,65.77
2022-11-10T22:58:46.774Z,66.36
2022-11-10T23:01:14.701Z,66.25
2022-11-10T23:03:44.704Z,66.74
2022-11-10T23:06:12.886Z,66.35
2022-11-10T23:08:46.213Z,66.27
2022-11-10T23:11:19.039Z,65.67
2022-11-10T23:13:47.166Z,64.56
2022-11-10T23:16:16.847Z,64.79
2022-11-10T23:18:45.866Z,65.09
2022-11-10T23:21:15.204Z,65.19
2022-11-10T23:23:43.595Z,65.32
2022-11-10T23:26:13.455Z,65.68
2022-11-10T23:28:42.762Z,65.74
2022-11-10T23:31:12.626Z,65.62
2022-11-10T23:33:41.986Z,64.58
2022-11-10T23:36:11.243Z,63.92
2022-11-10T23:38:39.546Z,63.93
2022-11-10T23:41:08.692Z,63.30
2022-11-10T23:43:36.257Z,63.88
2022-11-10T23:46:07.953Z,63.89
2022-11-10T23:48:36.643Z,64.52
2022-11-10T23:51:05.008Z,64.43
2022-11-10T23:53:33.067Z,64.97
2022-11-10T23:56:02.319Z,65.51
2022-11-10T23:58:30.177Z,65.60
